Time;durP1;ratioP1;P1;durP2;ratioP2;P2;SDS_P1;SDS_P2;PMS_P1;PMS_P2;Temp;Humidity;BMP_temperature;BMP_pressure;BME280_temperature;BME280_humidity;BME280_pressure;Samples;Min_cycle;Max_cycle;Signal;HPM_P1;HPM_P2
2023/05/13 00:02:02;;;;;;;5.00;2.70;;;;;;;18.22;45.58;102221.88;107073;1266;26494;-50
2023/05/13 00:04:29;;;;;;;4.00;2.50;;;;;;;18.19;45.89;102219.52;107166;1266;26583;-51
2023/05/13 00:06:56;;;;;;;1.80;1.70;;;;;;;18.19;45.88;102216.35;106945;1266;25344;-51
2023/05/13 00:09:23;;;;;;;1.90;1.80;;;;;;;18.20;45.00;102216.13;106593;1269;26513;-51
2023/05/13 00:11:50;;;;;;;4.00;2.00;;;;;;;18.20;44.34;102218.40;106589;1270;25458;-50
2023/05/13 00:14:18;;;;;;;2.50;1.80;;;;;;;18.20;43.92;102218.40;106397;1266;25369;-51
2023/05/13 00:16:45;;;;;;;2.10;1.80;;;;;;;18.21;43.56;102221.03;107059;1267;24218;-50
2023/05/13 00:19:12;;;;;;;2.50;2.00;;;;;;;18.20;43.57;102220.52;107068;1266;25353;-50
2023/05/13 00:21:40;;;;;;;2.60;1.80;;;;;;;18.16;43.86;102219.92;107232;1266;25408;-51
2023/05/13 00:24:07;;;;;;;3.60;2.10;;;;;;;18.16;43.43;102222.74;107179;1266;26490;-51
2023/05/13 00:26:34;;;;;;;2.20;1.90;;;;;;;18.16;43.43;102224.17;106879;1270;22526;-51
2023/05/13 00:29:01;;;;;;;2.20;1.90;;;;;;;18.14;43.25;102220.86;107122;1266;25520;-50
2023/05/13 00:31:28;;;;;;;2.40;1.90;;;;;;;18.13;43.24;102221.80;107103;1266;25393;-51
2023/05/13 00:33:55;;;;;;;2.90;2.00;;;;;;;18.11;43.15;102220.98;107148;1266;22638;-51
2023/05/13 00:36:23;;;;;;;4.40;1.60;;;;;;;18.11;42.99;102225.73;106874;1272;25533;-51
2023/05/13 00:38:50;;;;;;;2.20;1.60;;;;;;;18.09;42.63;102222.97;107093;1266;24436;-50
2023/05/13 00:41:17;;;;;;;2.00;1.60;;;;;;;18.10;42.40;102220.14;107034;1267;25378;-51
2023/05/13 00:43:46;;;;;;;2.00;1.80;;;;;;;18.09;42.33;102217.34;107025;1267;25518;-50
2023/05/13 00:46:14;;;;;;;4.20;1.70;;;;;;;18.10;42.31;102215.38;107044;1251;23118;-50
2023/05/13 00:48:41;;;;;;;2.80;1.60;;;;;;;18.10;41.18;102216.98;107031;1270;25491;-50
2023/05/13 00:51:08;;;;;;;2.10;1.90;;;;;;;18.09;40.39;102217.69;107051;1269;25498;-50
2023/05/13 00:53:35;;;;;;;1.70;1.60;;;;;;;18.09;40.34;102219.46;107005;1269;24458;-50
2023/05/13 00:56:02;;;;;;;4.70;1.70;;;;;;;18.09;40.28;102221.58;107063;1266;25334;-50
2023/05/13 00:58:29;;;;;;;1.90;1.30;;;;;;;18.07;39.86;102223.02;107125;1266;25449;-50
2023/05/13 01:01:12;;;;;;;3.10;1.40;;;;;;;18.05;40.08;102223.96;106898;1270;24345;-50
2023/05/13 01:03:57;;;;;;;4.40;1.90;;;;;;;18.04;40.29;102223.30;107181;1266;25406;-50
2023/05/13 01:06:48;;;;;;;1.80;1.40;;;;;;;18.03;40.13;102223.50;107102;1266;25564;-51
2023/05/13 01:09:25;;;;;;;1.70;1.60;;;;;;;18.01;40.21;102220.55;106616;1275;25443;-50
2023/05/13 01:11:52;;;;;;;3.80;1.80;;;;;;;18.00;40.36;102221.83;106512;1275;25351;-51
2023/05/13 01:14:25;;;;;;;2.20;1.60;;;;;;;18.00;40.27;102226.05;106365;1274;25562;-50
2023/05/13 01:16:57;;;;;;;2.60;1.80;;;;;;;17.98;40.10;102229.09;106524;1275;25444;-51
2023/05/13 01:19:32;;;;;;;2.70;1.80;;;;;;;17.96;39.61;102228.97;106423;1276;25366;-51
2023/05/13 01:21:58;;;;;;;2.70;1.80;;;;;;;17.96;39.27;102229.67;106395;1280;22535;-51
2023/05/13 01:24:26;;;;;;;4.20;2.10;;;;;;;17.96;39.41;102227.40;106555;1275;25474;-50
2023/05/13 01:26:53;;;;;;;3.60;1.80;;;;;;;17.96;39.43;102226.70;106590;1275;25415;-50
2023/05/13 01:29:21;;;;;;;2.90;1.80;;;;;;;17.96;39.32;102222.65;106414;1275;25354;-50
2023/05/13 01:31:49;;;;;;;2.50;1.60;;;;;;;17.96;39.00;102224.58;106417;1275;25446;-51
2023/05/13 01:34:18;;;;;;;2.20;1.50;;;;;;;17.95;38.58;102226.89;106559;1259;24505;-50
2023/05/13 01:36:45;;;;;;;2.10;1.80;;;;;;;17.95;38.23;102224.45;106490;1259;26756;-50
2023/05/13 01:39:12;;;;;;;2.40;2.00;;;;;;;17.94;38.70;102223.05;106368;1281;25403;-50
2023/05/13 01:41:40;;;;;;;2.50;1.60;;;;;;;17.95;39.00;102226.21;106436;1275;25482;-50
2023/05/13 01:44:07;;;;;;;2.10;1.60;;;;;;;17.94;38.86;102222.18;106289;1278;25399;-50
2023/05/13 01:46:36;;;;;;;4.20;2.00;;;;;;;17.93;39.07;102223.62;106801;1266;25561;-50
2023/05/13 01:49:03;;;;;;;2.00;1.80;;;;;;;17.91;39.04;102222.79;107041;1273;22545;-51
2023/05/13 01:51:31;;;;;;;4.90;2.30;;;;;;;17.89;38.84;102224.77;107210;1266;22625;-50
2023/05/13 01:53:58;;;;;;;2.90;2.00;;;;;;;17.87;39.05;102225.20;106833;1267;25406;-51
2023/05/13 01:56:25;;;;;;;3.20;2.00;;;;;;;17.84;39.08;102229.83;107071;1266;26592;-50
2023/05/13 01:58:52;;;;;;;2.90;1.80;;;;;;;17.81;39.57;102229.04;107115;1266;25353;-51
2023/05/13 02:01:19;;;;;;;3.00;2.10;;;;;;;17.78;38.83;102227.00;106925;1272;25472;-50
2023/05/13 02:03:49;;;;;;;4.00;2.30;;;;;;;17.75;38.58;102224.47;107117;1266;22529;-50
2023/05/13 02:06:17;;;;;;;2.30;2.00;;;;;;;17.72;38.82;102225.26;107136;1269;22553;-50
2023/05/13 02:08:44;;;;;;;3.90;2.10;;;;;;;17.68;38.70;102222.20;107161;1266;25385;-51
2023/05/13 02:11:11;;;;;;;3.50;2.60;;;;;;;17.65;38.60;102224.08;107028;1274;25347;-50
2023/05/13 02:13:38;;;;;;;2.20;1.70;;;;;;;17.61;39.00;102220.48;107013;1267;25414;-51
2023/05/13 02:16:05;;;;;;;1.80;1.70;;;;;;;17.59;39.44;102218.59;107073;1266;24349;-51
2023/05/13 02:18:32;;;;;;;5.60;2.00;;;;;;;17.56;39.30;102218.15;107123;1267;25337;-51
2023/05/13 02:20:59;;;;;;;4.70;2.00;;;;;;;17.51;39.34;102218.65;107052;1266;22535;-51
2023/05/13 02:23:28;;;;;;;4.40;2.00;;;;;;;17.51;38.97;102216.73;106836;1267;26579;-51
2023/05/13 02:25:55;;;;;;;2.80;1.90;;;;;;;17.50;39.24;102220.44;107136;1266;23271;-51
2023/05/13 02:28:23;;;;;;;3.80;2.00;;;;;;;17.48;39.48;102224.15;107120;1266;25340;-51
2023/05/13 02:30:50;;;;;;;4.70;2.70;;;;;;;17.46;39.85;102221.56;107130;1266;26634;-51
2023/05/13 02:33:17;;;;;;;3.60;2.80;;;;;;;17.45;40.13;102219.33;107119;1266;24202;-51
2023/05/13 02:35:45;;;;;;;3.50;2.60;;;;;;;17.43;39.77;102219.89;107023;1266;25418;-50
2023/05/13 02:38:12;;;;;;;5.30;3.20;;;;;;;17.41;39.79;102218.73;107173;1266;25406;-51
2023/05/13 02:40:39;;;;;;;4.80;2.90;;;;;;;17.40;39.71;102217.88;107119;1269;25472;-51
2023/05/13 02:43:06;;;;;;;5.60;3.00;;;;;;;17.37;40.05;102221.96;107162;1266;24362;-50
2023/05/13 02:45:46;;;;;;;3.40;2.70;;;;;;;17.36;40.38;102225.35;107076;1266;25609;-50
2023/05/13 02:48:13;;;;;;;4.10;3.10;;;;;;;17.34;40.40;102229.08;107110;1266;25490;-51
2023/05/13 02:50:40;;;;;;;3.80;2.70;;;;;;;17.31;40.26;102230.20;107161;1266;22528;-50
2023/05/13 02:53:08;;;;;;;3.90;2.90;;;;;;;17.29;40.60;102229.20;106960;1267;22539;-51
2023/05/13 02:55:37;;;;;;;5.50;3.30;;;;;;;17.29;41.01;102228.89;106875;1267;25498;-51
2023/05/13 02:58:04;;;;;;;5.30;2.90;;;;;;;17.27;41.15;102228.20;107168;1266;25340;-51
2023/05/13 03:00:31;;;;;;;5.50;2.90;;;;;;;17.27;41.37;102230.84;106992;1267;22545;-51
2023/05/13 03:02:59;;;;;;;4.20;2.90;;;;;;;17.26;41.35;102232.46;106801;1270;22530;-51
2023/05/13 03:05:26;;;;;;;3.30;2.70;;;;;;;17.24;41.39;102233.56;106735;1273;25351;-51
2023/05/13 03:07:57;;;;;;;7.10;2.80;;;;;;;17.23;41.33;102233.58;106717;1269;25354;-51
2023/05/13 03:10:25;;;;;;;4.10;2.50;;;;;;;17.23;41.17;102235.52;106723;1276;23929;-50
2023/05/13 03:12:52;;;;;;;3.90;2.90;;;;;;;17.23;41.07;102238.13;106578;1269;26622;-51
2023/05/13 03:15:20;;;;;;;3.90;2.70;;;;;;;17.24;40.85;102239.35;106424;1271;25421;-50
2023/05/13 03:17:47;;;;;;;4.50;2.80;;;;;;;17.25;40.84;102233.52;106230;1270;25334;-50
2023/05/13 03:20:14;;;;;;;4.40;2.40;;;;;;;17.26;40.66;102235.43;106643;1269;25373;-50
2023/05/13 03:22:41;;;;;;;4.10;2.80;;;;;;;17.28;40.39;102233.46;106821;1269;25412;-50
2023/05/13 03:25:10;;;;;;;4.60;2.70;;;;;;;17.29;40.34;102232.35;106689;1269;25450;-51
2023/05/13 03:27:43;;;;;;;6.00;2.60;;;;;;;17.32;40.44;102235.62;106722;1269;25530;-50
2023/05/13 03:30:11;;;;;;;4.20;3.10;;;;;;;17.34;40.65;102237.52;106718;1270;25512;-50
2023/05/13 03:32:52;;;;;;;5.70;2.90;;;;;;;17.36;40.25;102239.73;106794;1270;25340;-51
2023/05/13 03:35:20;;;;;;;3.00;2.50;;;;;;;17.37;40.31;102243.74;106711;1271;25520;-50
2023/05/13 03:37:47;;;;;;;4.90;2.70;;;;;;;17.38;40.34;102245.28;106671;1273;25409;-51
2023/05/13 03:40:15;;;;;;;3.60;2.90;;;;;;;17.40;40.02;102251.02;106784;1269;25306;-50
2023/05/13 03:42:42;;;;;;;3.40;2.90;;;;;;;17.41;40.16;102249.95;106802;1257;25487;-49
2023/05/13 03:45:10;;;;;;;4.40;2.90;;;;;;;17.43;40.34;102256.40;106818;1275;25344;-49
2023/05/13 03:47:38;;;;;;;3.70;2.80;;;;;;;17.44;40.55;102252.52;106896;1269;25339;-50
2023/05/13 03:50:08;;;;;;;5.00;2.60;;;;;;;17.45;40.30;102252.30;106594;1275;24254;-51
2023/05/13 03:52:39;;;;;;;5.60;3.10;;;;;;;17.45;40.62;102257.20;106766;1269;25561;-51
2023/05/13 03:55:07;;;;;;;3.80;2.60;;;;;;;17.46;40.95;102260.86;106716;1270;25361;-50
2023/05/13 03:57:34;;;;;;;5.50;2.60;;;;;;;17.47;41.26;102260.13;106871;1270;25419;-50
2023/05/13 04:00:03;;;;;;;5.60;2.70;;;;;;;17.48;41.24;102265.90;106560;1269;26503;-51
2023/05/13 04:02:41;;;;;;;5.30;3.10;;;;;;;17.50;41.32;102271.31;106702;1270;25449;-51
2023/05/13 04:05:08;;;;;;;7.10;2.90;;;;;;;17.51;41.30;102267.96;106739;1270;24266;-51
2023/05/13 04:07:36;;;;;;;4.90;3.00;;;;;;;17.52;41.55;102269.51;107034;1267;25485;-50
2023/05/13 04:10:04;;;;;;;4.60;2.70;;;;;;;17.54;41.48;102272.95;107109;1266;24314;-50
2023/05/13 04:12:32;;;;;;;5.00;3.10;;;;;;;17.56;41.39;102272.73;106842;1267;25344;-50
2023/05/13 04:15:00;;;;;;;5.10;2.90;;;;;;;17.59;41.34;102275.13;107062;1270;25398;-50
2023/05/13 04:17:27;;;;;;;3.90;2.70;;;;;;;17.62;41.23;102276.09;107108;1266;25359;-51
2023/05/13 04:19:55;;;;;;;4.20;2.90;;;;;;;17.66;41.16;102275.98;107105;1267;25341;-50
2023/05/13 04:22:23;;;;;;;3.40;2.70;;;;;;;17.72;40.86;102276.00;107070;1267;25408;-50
2023/05/13 04:24:55;;;;;;;2.70;2.40;;;;;;;17.77;40.73;102276.72;107171;1267;25514;-50
2023/05/13 04:27:23;;;;;;;4.20;2.50;;;;;;;17.82;40.56;102279.91;107179;1266;23733;-51
2023/05/13 04:29:52;;;;;;;3.80;2.50;;;;;;;17.87;39.98;102280.83;107053;1266;24270;-52
2023/05/13 04:32:22;;;;;;;4.30;2.90;;;;;;;17.93;39.97;102279.65;107169;1270;22549;-51
2023/05/13 04:34:53;;;;;;;5.80;3.20;;;;;;;17.98;39.97;102280.01;107033;1251;24222;-51
2023/05/13 04:37:20;;;;;;;7.00;2.80;;;;;;;18.03;39.92;102283.90;107069;1270;22911;-50
2023/05/13 04:39:48;;;;;;;5.80;2.40;;;;;;;18.07;39.64;102283.95;107173;1267;22987;-52
2023/05/13 04:42:17;;;;;;;4.20;3.00;;;;;;;18.12;39.72;102287.69;107039;1266;24247;-52
2023/05/13 04:44:44;;;;;;;7.60;2.50;;;;;;;18.17;39.93;102294.04;106762;1273;25405;-51
2023/05/13 04:47:11;;;;;;;3.90;2.60;;;;;;;18.22;39.79;102291.77;107072;1269;25484;-51
2023/05/13 04:49:38;;;;;;;2.70;2.20;;;;;;;18.27;39.62;102292.52;107068;1267;25420;-51
2023/05/13 04:52:06;;;;;;;3.20;2.60;;;;;;;18.32;39.86;102295.35;107123;1268;25417;-51
2023/05/13 04:54:34;;;;;;;5.50;2.80;;;;;;;18.37;39.75;102298.19;106882;1256;25326;-51
2023/05/13 04:57:02;;;;;;;5.20;2.50;;;;;;;18.42;39.94;102301.56;107231;1253;25322;-51
2023/05/13 04:59:30;;;;;;;5.70;2.70;;;;;;;18.47;39.45;102304.05;107077;1253;25415;-51
2023/05/13 05:01:57;;;;;;;4.60;2.50;;;;;;;18.54;39.34;102307.17;107146;1267;25362;-51
2023/05/13 05:04:25;;;;;;;5.60;2.90;;;;;;;18.62;39.51;102306.41;107188;1267;25514;-51
2023/05/13 05:06:53;;;;;;;3.20;2.50;;;;;;;18.72;39.47;102302.96;106800;1274;22541;-51
2023/05/13 05:09:21;;;;;;;2.90;2.20;;;;;;;18.83;39.27;102303.13;107162;1270;25368;-51
2023/05/13 05:11:50;;;;;;;4.20;2.50;;;;;;;18.94;39.02;102301.91;107060;1266;25475;-51
2023/05/13 05:14:19;;;;;;;3.50;2.40;;;;;;;19.05;38.98;102303.30;107106;1266;23093;-51
2023/05/13 05:16:47;;;;;;;3.90;2.50;;;;;;;19.17;38.71;102305.16;107100;1270;25585;-51
2023/05/13 05:19:14;;;;;;;4.10;2.80;;;;;;;19.30;38.64;102303.17;107000;1269;24199;-51
2023/05/13 05:21:42;;;;;;;5.70;2.70;;;;;;;19.42;38.94;102304.36;106574;1274;24552;-52
2023/05/13 05:24:09;;;;;;;2.60;2.00;;;;;;;19.53;39.12;102305.04;107114;1266;25481;-51
2023/05/13 05:26:37;;;;;;;4.60;2.50;;;;;;;19.63;38.81;102306.65;106905;1269;25354;-52
2023/05/13 05:29:05;;;;;;;3.10;2.40;;;;;;;19.72;38.88;102304.55;106805;1267;25452;-51
2023/05/13 05:34:56;;;;;;;3.90;2.80;;;;;;;20.09;38.11;102307.59;103662;1306;545096;-49
2023/05/13 05:37:23;;;;;;;4.40;2.80;;;;;;;20.17;38.12;102308.70;105751;1285;22540;-50
2023/05/13 05:39:50;;;;;;;4.00;3.10;;;;;;;20.28;37.92;102309.05;105942;1282;22795;-50
2023/05/13 05:42:17;;;;;;;5.70;2.50;;;;;;;20.39;37.80;102313.41;105955;1282;25348;-50
2023/05/13 05:44:44;;;;;;;3.20;2.70;;;;;;;20.47;37.66;102314.83;105937;1282;22666;-51
2023/05/13 05:47:12;;;;;;;3.40;2.70;;;;;;;20.55;37.80;102318.94;105889;1282;22545;-51
2023/05/13 05:49:39;;;;;;;4.40;2.80;;;;;;;20.67;37.71;102317.40;105749;1282;221388;-51
2023/05/13 05:52:06;;;;;;;3.70;2.80;;;;;;;20.79;37.58;102317.61;105115;1268;1003604;-51
2023/05/13 05:54:33;;;;;;;3.90;3.10;;;;;;;20.85;37.48;102322.86;105907;1282;25521;-51
2023/05/13 05:57:00;;;;;;;2.80;2.40;;;;;;;20.88;37.65;102319.93;105910;1284;24302;-50
2023/05/13 05:59:27;;;;;;;6.60;2.70;;;;;;;20.92;37.85;102320.98;105852;1284;25618;-51
2023/05/13 06:01:55;;;;;;;4.00;2.90;;;;;;;21.05;37.68;102319.61;105891;1283;25299;-50
2023/05/13 06:04:23;;;;;;;5.40;2.80;;;;;;;21.17;37.32;102320.88;105867;1282;22523;-51
2023/05/13 06:06:51;;;;;;;4.00;2.40;;;;;;;21.27;37.28;102325.26;105824;1268;25500;-51
2023/05/13 06:09:18;;;;;;;3.10;2.50;;;;;;;21.33;36.78;102329.25;105819;1281;25615;-52
2023/05/13 06:11:47;;;;;;;3.00;2.40;;;;;;;21.40;36.82;102331.56;105868;1287;24365;-52
2023/05/13 06:14:16;;;;;;;5.30;2.70;;;;;;;21.53;36.50;102326.22;105700;1282;22748;-52
2023/05/13 06:16:43;;;;;;;4.50;2.80;;;;;;;21.69;36.33;102320.08;106008;1275;25506;-51
2023/05/13 06:19:10;;;;;;;3.70;2.60;;;;;;;21.82;36.31;102321.48;105766;1282;22541;-51
2023/05/13 06:21:37;;;;;;;2.70;2.10;;;;;;;21.93;36.37;102321.17;106089;1280;22536;-52
2023/05/13 06:24:05;;;;;;;3.40;2.50;;;;;;;22.00;36.64;102321.05;105951;1280;22557;-51
2023/05/13 06:26:32;;;;;;;3.70;2.90;;;;;;;22.05;36.88;102316.02;105949;1280;22778;-52
2023/05/13 06:28:59;;;;;;;3.80;2.60;;;;;;;22.12;36.87;102316.80;106020;1284;22607;-51
2023/05/13 06:31:26;;;;;;;5.40;2.60;;;;;;;22.12;36.92;102313.58;106034;1280;22529;-51
2023/05/13 06:33:53;;;;;;;4.70;2.90;;;;;;;22.08;37.55;102311.80;105632;1285;26627;-51
2023/05/13 06:36:23;;;;;;;3.40;2.70;;;;;;;22.02;37.67;102310.33;105904;1284;24905;-51
2023/05/13 06:38:51;;;;;;;3.10;2.50;;;;;;;21.98;37.68;102309.64;105881;1284;25320;-50
2023/05/13 06:41:21;;;;;;;5.80;2.90;;;;;;;21.96;37.77;102316.97;105857;1281;24248;-51
2023/05/13 06:43:50;;;;;;;2.60;2.40;;;;;;;22.00;37.81;102317.85;105858;1281;25502;-51
2023/05/13 06:46:21;;;;;;;3.50;2.20;;;;;;;22.11;38.00;102321.76;105808;1281;24247;-51
2023/05/13 06:48:51;;;;;;;3.80;2.30;;;;;;;22.31;37.33;102324.54;105922;1281;22539;-51
2023/05/13 06:51:18;;;;;;;3.10;2.40;;;;;;;22.48;36.59;102329.23;105965;1280;24402;-52
2023/05/13 06:53:46;;;;;;;5.00;2.60;;;;;;;22.59;36.15;102327.50;106052;1280;24260;-51
2023/05/13 06:56:13;;;;;;;4.50;2.60;;;;;;;22.68;35.36;102328.70;106002;1281;22536;-50
2023/05/13 06:58:40;;;;;;;3.50;2.50;;;;;;;22.75;34.89;102329.59;105912;1281;24282;-51
2023/05/13 07:01:07;;;;;;;3.00;2.00;;;;;;;22.84;34.65;102328.25;106024;1269;24219;-51
2023/05/13 07:03:35;;;;;;;4.10;2.00;;;;;;;22.95;34.34;102325.80;106057;1281;22612;-50
2023/05/13 07:06:03;;;;;;;2.70;2.50;;;;;;;23.01;33.91;102328.88;106151;1281;25250;-51
2023/05/13 07:08:30;;;;;;;2.60;2.20;;;;;;;23.11;33.93;102331.35;106044;1281;22536;-51
2023/05/13 07:10:57;;;;;;;3.10;2.40;;;;;;;23.25;33.51;102328.55;103885;1280;1003766;-52
2023/05/13 07:13:24;;;;;;;2.20;2.00;;;;;;;23.34;33.22;102328.27;105997;1281;25509;-52
2023/05/13 07:15:51;;;;;;;2.90;2.40;;;;;;;23.44;33.20;102325.11;106089;1280;22553;-52
2023/05/13 07:18:18;;;;;;;4.70;3.00;;;;;;;23.53;32.64;102324.30;105913;1286;24240;-52
2023/05/13 07:20:46;;;;;;;3.40;2.70;;;;;;;23.60;32.79;102328.22;105935;1280;24374;-51
2023/05/13 07:23:13;;;;;;;4.00;3.60;;;;;;;23.70;31.76;102332.82;106579;1273;29618;-52
2023/05/13 07:25:40;;;;;;;5.60;4.30;;;;;;;23.73;31.75;102331.04;106477;1274;22555;-51
2023/05/13 07:28:08;;;;;;;4.00;3.60;;;;;;;23.75;32.09;102333.45;106257;1277;24284;-52
2023/05/13 07:30:35;;;;;;;4.40;4.00;;;;;;;23.74;32.53;102332.75;106553;1274;24909;-51
2023/05/13 07:33:02;;;;;;;3.70;3.00;;;;;;;23.76;33.03;102334.59;106390;1274;22997;-52
2023/05/13 07:35:29;;;;;;;4.90;2.90;;;;;;;23.71;33.03;102329.91;106519;1274;25305;-52
2023/05/13 07:37:57;;;;;;;5.00;3.10;;;;;;;23.63;33.22;102329.80;105776;1274;1002965;-51
2023/05/13 07:40:24;;;;;;;3.70;2.40;;;;;;;23.60;33.23;102332.80;106575;1275;22656;-52
2023/05/13 07:42:51;;;;;;;7.80;3.00;;;;;;;23.61;32.73;102329.73;107026;1262;22510;-52
2023/05/13 07:45:18;;;;;;;2.90;2.30;;;;;;;23.62;33.13;102327.91;106600;1280;22530;-51
2023/05/13 07:47:45;;;;;;;3.00;2.60;;;;;;;23.66;33.05;102327.73;106687;1274;22584;-51
2023/05/13 07:50:13;;;;;;;3.10;2.30;;;;;;;23.66;32.84;102329.33;106479;1278;22640;-51
2023/05/13 07:52:40;;;;;;;3.40;2.40;;;;;;;23.64;33.10;102331.87;106849;1268;22531;-51
2023/05/13 07:55:09;;;;;;;4.10;2.30;;;;;;;23.70;32.88;102331.20;106660;1261;25690;-51
2023/05/13 07:57:36;;;;;;;3.20;2.50;;;;;;;23.74;32.98;102335.78;106460;1273;24271;-51
2023/05/13 08:00:04;;;;;;;3.70;2.40;;;;;;;23.70;32.89;102333.02;105936;1274;1003667;-51
2023/05/13 08:02:38;;;;;;;3.80;2.70;;;;;;;23.68;32.60;102331.52;106502;1276;24411;-51
2023/05/13 08:05:06;;;;;;;4.10;2.30;;;;;;;23.67;32.22;102333.86;106624;1273;22698;-51
2023/05/13 08:07:33;;;;;;;3.40;2.10;;;;;;;23.70;32.60;102331.05;106477;1273;22538;-51
2023/05/13 08:10:00;;;;;;;6.20;2.50;;;;;;;23.79;32.22;102331.11;107034;1266;24382;-52
2023/05/13 08:12:27;;;;;;;2.60;1.90;;;;;;;23.89;32.36;102329.84;106747;1266;24300;-52
2023/05/13 08:14:54;;;;;;;3.00;2.20;;;;;;;24.02;31.87;102327.41;106466;1271;22737;-51
2023/05/13 08:17:22;;;;;;;4.10;2.10;;;;;;;24.16;31.59;102328.23;106592;1275;22549;-51
2023/05/13 08:19:49;;;;;;;3.40;2.50;;;;;;;24.32;30.98;102330.42;106748;1274;22530;-52
2023/05/13 08:22:16;;;;;;;5.00;2.30;;;;;;;24.45;30.26;102333.24;106553;1271;24416;-51
2023/05/13 08:24:43;;;;;;;3.40;2.40;;;;;;;24.55;29.83;102334.48;106542;1275;25236;-52
2023/05/13 08:27:11;;;;;;;3.90;2.30;;;;;;;24.63;29.92;102340.05;106520;1278;22584;-52
2023/05/13 08:29:38;;;;;;;2.60;2.20;;;;;;;24.70;30.04;102335.57;106259;1278;23014;-52
2023/05/13 08:32:07;;;;;;;4.90;2.50;;;;;;;24.78;29.96;102337.85;106340;1273;22704;-51
2023/05/13 08:34:35;;;;;;;5.40;2.90;;;;;;;24.83;30.36;102336.14;106264;1274;22538;-51
2023/05/13 08:37:03;;;;;;;3.50;2.60;;;;;;;24.86;31.30;102332.23;106334;1278;22529;-51
2023/05/13 08:39:30;;;;;;;4.00;2.60;;;;;;;24.90;31.39;102334.10;106518;1273;25236;-51
2023/05/13 08:41:57;;;;;;;6.60;2.70;;;;;;;24.93;31.11;102332.36;106538;1275;22765;-52
2023/05/13 08:44:27;;;;;;;4.60;2.60;;;;;;;24.91;30.83;102328.04;106515;1272;25603;-51
2023/05/13 08:47:20;;;;;;;3.70;2.60;;;;;;;24.92;30.60;102331.70;106799;1274;23153;-51
2023/05/13 08:49:48;;;;;;;3.80;2.60;;;;;;;24.95;30.58;102333.62;106543;1274;22533;-51
2023/05/13 08:52:17;;;;;;;2.70;2.40;;;;;;;24.97;31.21;102334.75;106360;1277;22532;-51
2023/05/13 08:54:44;;;;;;;4.50;2.50;;;;;;;24.97;31.53;102337.42;106870;1275;25308;-51
2023/05/13 08:57:11;;;;;;;2.50;2.10;;;;;;;24.99;31.54;102337.17;106621;1274;22529;-51
2023/05/13 08:59:38;;;;;;;3.30;2.50;;;;;;;24.99;30.74;102338.35;106553;1278;22645;-51
2023/05/13 09:02:05;;;;;;;4.00;2.40;;;;;;;25.02;30.42;102337.15;106413;1274;22636;-51
2023/05/13 09:04:36;;;;;;;3.30;2.40;;;;;;;25.05;30.43;102335.38;106649;1271;22545;-51
2023/05/13 09:07:06;;;;;;;3.30;2.40;;;;;;;25.06;30.53;102336.55;106429;1274;22525;-51
2023/05/13 09:09:34;;;;;;;3.30;2.40;;;;;;;25.03;31.13;102332.30;106286;1278;22547;-51
2023/05/13 09:12:02;;;;;;;2.70;2.10;;;;;;;25.02;31.70;102329.66;106712;1273;22625;-51
2023/05/13 09:14:33;;;;;;;3.80;2.00;;;;;;;25.04;31.42;102327.78;106300;1277;24184;-51
2023/05/13 09:17:00;;;;;;;3.00;2.00;;;;;;;25.08;31.19;102329.02;106130;1275;22875;-51
2023/05/13 09:19:27;;;;;;;3.20;2.20;;;;;;;25.10;30.95;102329.75;106183;1275;22642;-52
2023/05/13 09:21:55;;;;;;;2.90;1.80;;;;;;;25.12;30.86;102326.11;106260;1275;22588;-50
2023/05/13 09:24:23;;;;;;;5.40;2.60;;;;;;;25.12;30.70;102325.73;105960;1275;24257;-51
2023/05/13 09:26:50;;;;;;;2.90;2.20;;;;;;;25.12;30.59;102324.83;106171;1267;24072;-51
2023/05/13 09:29:29;;;;;;;2.50;2.20;;;;;;;25.12;30.66;102319.87;106198;1273;25247;-51
2023/05/13 09:31:59;;;;;;;3.50;2.40;;;;;;;25.12;31.19;102318.84;106161;1273;24310;-51
2023/05/13 09:34:29;;;;;;;3.40;2.20;;;;;;;25.05;31.07;102317.09;106336;1259;24224;-51
2023/05/13 09:36:56;;;;;;;3.60;2.00;;;;;;;24.96;30.52;102317.60;106138;1280;24498;-51
2023/05/13 09:39:23;;;;;;;2.20;1.80;;;;;;;24.88;30.01;102315.55;106589;1274;25599;-51
2023/05/13 09:41:51;;;;;;;3.80;2.40;;;;;;;24.81;29.99;102312.27;106515;1274;24453;-51
2023/05/13 09:44:20;;;;;;;4.10;2.00;;;;;;;24.78;28.45;102312.27;106553;1275;22782;-50
2023/05/13 09:46:47;;;;;;;2.90;1.50;;;;;;;24.80;28.20;102308.94;106612;1262;22531;-51
2023/05/13 09:49:14;;;;;;;2.80;2.00;;;;;;;24.87;27.62;102303.54;106348;1276;22527;-51
2023/05/13 09:51:42;;;;;;;2.40;2.00;;;;;;;24.97;28.05;102305.13;106487;1274;24317;-51
2023/05/13 09:54:09;;;;;;;2.80;1.90;;;;;;;25.06;29.08;102298.55;106411;1275;25653;-51
2023/05/13 09:56:38;;;;;;;2.40;1.90;;;;;;;25.12;28.45;102299.97;106316;1277;23003;-50
2023/05/13 09:59:05;;;;;;;5.20;2.60;;;;;;;25.16;29.61;102295.17;106562;1275;22540;-50
2023/05/13 10:01:33;;;;;;;3.40;1.80;;;;;;;25.16;30.40;102297.98;106563;1274;24244;-51
2023/05/13 10:04:01;;;;;;;2.10;1.90;;;;;;;25.14;30.64;102296.66;106367;1275;24301;-51
2023/05/13 10:06:29;;;;;;;3.50;2.10;;;;;;;25.13;31.29;102295.12;106632;1273;24816;-51
2023/05/13 10:08:57;;;;;;;3.00;2.10;;;;;;;25.15;31.65;102293.63;105668;1275;1003219;-51
2023/05/13 10:11:24;;;;;;;3.90;2.00;;;;;;;25.15;32.23;102297.16;106543;1273;24006;-51
2023/05/13 10:13:54;;;;;;;4.00;2.40;;;;;;;25.13;32.74;102294.23;106474;1275;25348;-51
2023/05/13 10:16:22;;;;;;;4.80;2.00;;;;;;;25.12;33.48;102292.91;106378;1278;22651;-51
2023/05/13 10:18:50;;;;;;;2.40;2.20;;;;;;;25.09;33.43;102294.27;106546;1274;22537;-51
2023/05/13 10:21:20;;;;;;;2.30;2.00;;;;;;;25.04;33.41;102288.89;106380;1276;24255;-51
2023/05/13 10:23:50;;;;;;;2.90;1.90;;;;;;;24.97;33.62;102290.59;106273;1275;24355;-51
2023/05/13 10:26:19;;;;;;;2.70;1.90;;;;;;;24.87;33.71;102288.47;106483;1274;22539;-51
2023/05/13 10:28:47;;;;;;;3.40;2.00;;;;;;;24.81;34.04;102287.05;106539;1272;22593;-51
2023/05/13 10:31:15;;;;;;;3.60;2.00;;;;;;;24.81;34.21;102284.59;106572;1274;22529;-51
2023/05/13 10:33:42;;;;;;;2.30;2.00;;;;;;;24.83;33.39;102279.30;106532;1274;22531;-51
2023/05/13 10:36:20;;;;;;;2.30;2.00;;;;;;;24.88;33.17;102278.31;106474;1273;24376;-51
2023/05/13 10:39:15;;;;;;;3.20;1.70;;;;;;;24.93;31.16;102278.21;106334;1280;27199;-51
2023/05/13 10:42:07;;;;;;;3.20;2.20;;;;;;;25.00;29.26;102275.65;106504;1275;22539;-52
2023/05/13 10:44:34;;;;;;;3.20;2.10;;;;;;;25.06;28.88;102274.27;106502;1274;25474;-51
2023/05/13 10:47:01;;;;;;;2.70;1.80;;;;;;;25.10;29.23;102271.91;106513;1273;22531;-51
2023/05/13 10:49:33;;;;;;;3.10;2.40;;;;;;;25.16;29.16;102270.13;106566;1278;24508;-51
2023/05/13 10:52:05;;;;;;;2.40;1.90;;;;;;;25.20;29.47;102268.77;106555;1275;25208;-50
2023/05/13 10:54:37;;;;;;;3.70;1.70;;;;;;;25.24;30.76;102269.96;106588;1274;23166;-51
2023/05/13 10:57:05;;;;;;;3.20;1.80;;;;;;;25.27;30.65;102272.09;106430;1275;24272;-51
2023/05/13 10:59:34;;;;;;;2.30;2.00;;;;;;;25.28;30.79;102272.23;106489;1273;24395;-51
2023/05/13 11:02:02;;;;;;;2.70;2.20;;;;;;;25.26;30.45;102273.02;106505;1273;25867;-51
2023/05/13 11:04:30;;;;;;;3.40;1.90;;;;;;;25.24;30.17;102271.55;106461;1275;22785;-52
2023/05/13 11:06:57;;;;;;;3.30;1.90;;;;;;;25.23;30.35;102275.15;106526;1278;23068;-51
2023/05/13 11:09:25;;;;;;;2.80;2.20;;;;;;;25.24;30.30;102271.54;106468;1273;24213;-51
2023/05/13 11:11:53;;;;;;;2.20;1.60;;;;;;;25.27;30.27;102275.85;105826;1275;1003737;-51
2023/05/13 11:14:21;;;;;;;1.90;1.70;;;;;;;25.29;30.73;102278.52;106634;1273;22531;-51
2023/05/13 11:17:00;;;;;;;2.40;1.80;;;;;;;25.32;30.71;102278.52;106649;1273;24403;-51
2023/05/13 11:19:29;;;;;;;3.50;1.70;;;;;;;25.36;30.29;102282.75;106590;1274;25093;-51
2023/05/13 11:21:58;;;;;;;3.60;1.60;;;;;;;25.38;30.38;102282.44;106350;1275;24227;-52
2023/05/13 11:24:25;;;;;;;2.30;1.80;;;;;;;25.96;29.77;102282.69;106539;1273;22540;-51
2023/05/13 11:26:55;;;;;;;2.20;1.90;;;;;;;26.51;28.47;102282.69;106540;1272;24101;-51